createdAt,value
2022-09-14T00:00:20.965Z,0.80
2022-09-14T00:00:42.600Z,0.65
2022-09-14T00:01:24.377Z,0.88
2022-09-14T00:01:48.818Z,0.60
2022-09-14T00:02:10.663Z,0.82
2022-09-14T00:02:32.619Z,0.88
2022-09-14T00:02:54.907Z,0.75
2022-09-14T00:03:18.014Z,0.75
2022-09-14T00:03:40.794Z,0.60
2022-09-14T00:04:05.639Z,0.65
2022-09-14T00:04:27.696Z,0.88
2022-09-14T00:04:51.281Z,1.02
2022-09-14T00:05:13.923Z,0.75
2022-09-14T00:05:35.953Z,0.88
2022-09-14T00:06:03.660Z,0.80
2022-09-14T00:06:27.025Z,1.08
2022-09-14T00:06:49.137Z,0.88
2022-09-14T00:07:10.944Z,0.95
2022-09-14T00:07:32.501Z,0.70
2022-09-14T00:07:55.079Z,0.75
2022-09-14T00:08:16.717Z,0.77
2022-09-14T00:08:38.662Z,0.95
2022-09-14T00:09:01.681Z,1.00
2022-09-14T00:09:25.989Z,0.70
2022-09-14T00:09:49.216Z,0.73
2022-09-14T00:10:11.047Z,0.80
2022-09-14T00:10:32.792Z,1.20
2022-09-14T00:10:54.425Z,0.90
2022-09-14T00:11:16.977Z,0.73
2022-09-14T00:11:38.797Z,0.95
2022-09-14T00:12:01.974Z,0.80
2022-09-14T00:12:24.977Z,0.68
2022-09-14T00:12:46.547Z,0.80
2022-09-14T00:13:09.929Z,0.70
2022-09-14T00:13:31.600Z,1.10
2022-09-14T00:13:54.272Z,1.27
2022-09-14T00:14:16.801Z,0.95
2022-09-14T00:14:39.404Z,1.02
2022-09-14T00:15:01.036Z,0.77
2022-09-14T00:15:22.643Z,0.80
2022-09-14T00:15:45.046Z,0.85
2022-09-14T00:16:11.416Z,1.20
2022-09-14T00:16:36.689Z,1.02
2022-09-14T00:16:58.384Z,0.98
2022-09-14T00:17:20.977Z,1.20
2022-09-14T00:17:42.645Z,0.90
2022-09-14T00:18:06.761Z,0.93
2022-09-14T00:18:28.998Z,1.20
2022-09-14T00:18:51.426Z,1.00
2022-09-14T00:19:19.158Z,0.98
2022-09-14T00:19:40.817Z,0.77
2022-09-14T00:20:02.694Z,0.95
2022-09-14T00:20:24.332Z,0.77
2022-09-14T00:20:45.924Z,0.80
2022-09-14T00:21:11.037Z,0.90
2022-09-14T00:21:33.516Z,0.90
2022-09-14T00:21:58.120Z,0.80
2022-09-14T00:22:20.894Z,1.00
2022-09-14T00:22:42.489Z,0.88
2022-09-14T00:23:04.901Z,0.77
2022-09-14T00:23:26.527Z,1.00
2022-09-14T00:24:35.859Z,0.80
2022-09-14T00:24:57.492Z,1.00
2022-09-14T00:25:19.129Z,1.00
2022-09-14T00:25:40.753Z,0.80
2022-09-14T00:26:06.132Z,0.68
2022-09-14T00:26:31.026Z,0.90
2022-09-14T00:26:53.765Z,1.05
2022-09-14T00:27:16.722Z,0.75
2022-09-14T00:27:38.304Z,1.10
2022-09-14T00:28:01.276Z,1.00
2022-09-14T00:28:22.874Z,1.00
2022-09-14T00:28:46.911Z,0.95
2022-09-14T00:29:08.573Z,0.63
2022-09-14T00:29:33.309Z,0.88
2022-09-14T00:29:54.933Z,1.00
2022-09-14T00:30:16.857Z,1.00
2022-09-14T00:30:41.527Z,1.17
2022-09-14T00:31:03.930Z,1.20
2022-09-14T00:31:27.017Z,1.20
2022-09-14T00:31:48.700Z,1.00
2022-09-14T00:32:10.408Z,0.80
2022-09-14T00:32:32.353Z,0.80
2022-09-14T00:32:55.949Z,0.85
2022-09-14T00:33:17.755Z,1.20
2022-09-14T00:33:42.242Z,0.82
2022-09-14T00:34:04.783Z,0.90
2022-09-14T00:34:28.597Z,1.20
2022-09-14T00:34:50.320Z,1.23
2022-09-14T00:35:11.943Z,1.38
2022-09-14T00:35:35.567Z,0.90
2022-09-14T00:36:04.569Z,1.10
2022-09-14T00:36:28.662Z,1.10
2022-09-14T00:36:51.613Z,1.33
2022-09-14T00:37:14.130Z,1.23
2022-09-14T00:37:35.712Z,1.38
2022-09-14T00:37:58.289Z,1.20
2022-09-14T00:38:20.120Z,1.05
2022-09-14T00:38:42.458Z,1.00
2022-09-14T00:39:05.313Z,1.02
2022-09-14T00:39:28.991Z,1.00
2022-09-14T00:39:50.807Z,0.90
2022-09-14T00:40:12.725Z,1.08
2022-09-14T00:40:34.405Z,1.10
2022-09-14T00:40:59.050Z,1.40
2022-09-14T00:41:23.913Z,1.00
2022-09-14T00:41:49.329Z,1.37
2022-09-14T00:42:19.361Z,1.17
2022-09-14T00:42:41.942Z,1.33
2022-09-14T00:43:03.921Z,0.90
2022-09-14T00:43:25.596Z,1.17
2022-09-14T00:43:56.165Z,1.25
2022-09-14T00:44:56.480Z,1.17
2022-09-14T00:45:21.415Z,1.03
2022-09-14T00:45:43.094Z,0.98
2022-09-14T00:46:04.781Z,1.30
2022-09-14T00:46:29.548Z,1.02
2022-09-14T00:46:54.484Z,1.17
2022-09-14T00:47:17.221Z,1.33
2022-09-14T00:47:40.865Z,1.27
2022-09-14T00:48:03.441Z,1.27
2022-09-14T00:48:25.752Z,1.30
2022-09-14T00:48:47.476Z,1.15
2022-09-14T00:49:12.978Z,0.93
2022-09-14T00:49:37.888Z,0.98
2022-09-14T00:50:03.886Z,1.13
2022-09-14T00:50:26.032Z,1.00
2022-09-14T00:50:47.932Z,1.25
2022-09-14T00:51:09.572Z,1.08
2022-09-14T00:51:34.587Z,1.35
2022-09-14T00:52:03.778Z,1.33
2022-09-14T00:52:28.285Z,1.00
2022-09-14T00:52:51.694Z,0.98
2022-09-14T00:53:13.402Z,1.20
2022-09-14T00:53:35.024Z,1.00
2022-09-14T00:53:56.904Z,1.20
2022-09-14T00:54:19.168Z,1.00
2022-09-14T00:54:43.325Z,1.10
2022-09-14T00:55:08.993Z,1.20
2022-09-14T00:55:31.579Z,1.35
2022-09-14T00:55:54.988Z,1.33
2022-09-14T00:56:16.802Z,1.17
2022-09-14T00:56:39.281Z,0.80
2022-09-14T00:57:03.649Z,1.03
2022-09-14T00:57:30.356Z,1.02
2022-09-14T00:57:55.313Z,1.50
2022-09-14T00:58:16.920Z,0.90
2022-09-14T00:58:38.828Z,1.65
2022-09-14T00:59:06.965Z,1.45
2022-09-14T00:59:32.620Z,1.30
2022-09-14T00:59:56.717Z,1.17
2022-09-14T01:00:21.004Z,1.27
2022-09-14T01:00:42.912Z,1.45
2022-09-14T01:01:04.775Z,1.40
2022-09-14T01:01:28.297Z,1.38
2022-09-14T01:01:50.761Z,1.38
2022-09-14T01:02:15.725Z,1.38
2022-09-14T01:02:38.351Z,1.42
2022-09-14T01:03:01.818Z,1.40
2022-09-14T01:03:23.458Z,1.40
2022-09-14T01:03:45.173Z,1.20
2022-09-14T01:04:06.992Z,1.40
2022-09-14T01:04:28.824Z,1.55
2022-09-14T01:04:52.118Z,1.20
2022-09-14T01:05:14.697Z,1.13
2022-09-14T01:05:49.585Z,1.10
2022-09-14T01:06:19.254Z,1.43
2022-09-14T01:06:49.977Z,1.67
2022-09-14T01:07:24.874Z,1.38
2022-09-14T01:08:10.849Z,1.30
2022-09-14T01:08:43.945Z,1.67
2022-09-14T01:09:18.096Z,1.38
2022-09-14T01:09:46.040Z,1.40
2022-09-14T01:10:21.805Z,1.77
2022-09-14T01:10:59.813Z,1.90
2022-09-14T01:11:39.771Z,1.50
2022-09-14T01:12:13.885Z,1.27
2022-09-14T01:12:48.155Z,1.08
2022-09-14T01:13:25.849Z,1.60
2022-09-14T01:13:59.759Z,1.73
2022-09-14T01:14:31.637Z,1.58
2022-09-14T01:15:02.583Z,1.63
2022-09-14T01:15:29.113Z,1.65
2022-09-14T01:16:07.788Z,1.88
2022-09-14T01:16:34.319Z,1.25
2022-09-14T01:17:03.789Z,1.70
2022-09-14T01:17:34.908Z,1.67
2022-09-14T01:18:03.056Z,1.60
2022-09-14T01:18:34.006Z,1.30
2022-09-14T01:18:58.155Z,1.52
2022-09-14T01:19:26.092Z,1.33
2022-09-14T01:20:10.875Z,1.95
2022-09-14T01:20:39.648Z,1.33
2022-09-14T01:21:11.258Z,1.55
2022-09-14T01:21:35.553Z,1.70
2022-09-14T01:22:07.809Z,1.42
2022-09-14T01:22:37.374Z,1.63
2022-09-14T01:23:09.987Z,1.48
2022-09-14T01:23:41.271Z,1.10
2022-09-14T01:24:14.457Z,1.30
2022-09-14T01:24:43.510Z,1.60
2022-09-14T01:25:15.085Z,1.38
2022-09-14T01:26:19.110Z,1.45
2022-09-14T01:27:00.291Z,1.23
2022-09-14T01:27:28.816Z,1.58
2022-09-14T01:27:52.848Z,1.30
2022-09-14T01:28:22.998Z,1.40
2022-09-14T01:28:51.704Z,1.05
2022-09-14T01:29:16.583Z,1.15
2022-09-14T01:29:45.680Z,1.90
2022-09-14T01:30:10.414Z,1.15
2022-09-14T01:30:34.599Z,1.52
2022-09-14T01:30:58.714Z,1.75
2022-09-14T01:31:28.500Z,1.65
2022-09-14T01:31:56.729Z,1.67
2022-09-14T01:32:22.581Z,1.85
2022-09-14T01:32:52.262Z,1.35
2022-09-14T01:33:17.935Z,1.95
2022-09-14T01:33:44.277Z,1.50
2022-09-14T01:34:12.941Z,1.50
2022-09-14T01:34:40.668Z,1.50
2022-09-14T01:35:15.687Z,1.15
2022-09-14T01:35:42.497Z,1.70
2022-09-14T01:36:08.929Z,1.35
2022-09-14T01:36:34.633Z,1.40
2022-09-14T01:37:01.881Z,1.13
2022-09-14T01:37:28.708Z,1.60
2022-09-14T01:37:54.941Z,1.77
2022-09-14T01:38:22.104Z,1.23
2022-09-14T01:38:48.050Z,1.65
2022-09-14T01:39:11.117Z,2.20
2022-09-14T01:39:35.504Z,1.58
2022-09-14T01:40:01.273Z,1.67
2022-09-14T01:40:29.230Z,1.60
2022-09-14T01:40:52.292Z,1.80
2022-09-14T01:41:20.351Z,2.00
2022-09-14T01:41:42.637Z,1.90
2022-09-14T01:42:06.924Z,1.70
2022-09-14T01:42:32.533Z,1.45
2022-09-14T01:42:58.789Z,1.50
2022-09-14T01:43:25.046Z,1.60
2022-09-14T01:43:50.234Z,1.33
2022-09-14T01:44:18.169Z,1.33
2022-09-14T01:44:44.488Z,1.40
2022-09-14T01:45:10.921Z,1.80
2022-09-14T01:45:34.697Z,1.40
2022-09-14T01:46:01.115Z,1.05
2022-09-14T01:46:26.404Z,1.25
2022-09-14T01:46:53.161Z,1.63
2022-09-14T01:47:17.700Z,1.65
2022-09-14T01:47:49.039Z,1.85
2022-09-14T01:48:14.468Z,1.48
2022-09-14T01:48:39.933Z,1.35
2022-09-14T01:49:07.763Z,1.50
2022-09-14T01:49:35.569Z,1.40
2022-09-14T01:50:02.547Z,1.52
2022-09-14T01:50:28.402Z,1.85
2022-09-14T01:50:55.516Z,1.70
2022-09-14T01:51:23.002Z,2.15
2022-09-14T01:51:46.897Z,2.00
2022-09-14T01:52:17.162Z,2.17
2022-09-14T01:52:43.441Z,1.50
2022-09-14T01:53:09.637Z,1.75
2022-09-14T01:53:37.721Z,2.40
2022-09-14T01:54:07.726Z,1.55
2022-09-14T01:54:34.715Z,1.95
2022-09-14T01:55:01.459Z,1.75
2022-09-14T01:55:28.183Z,1.67
2022-09-14T01:55:56.268Z,1.92
2022-09-14T01:56:23.063Z,1.52
2022-09-14T01:56:50.024Z,1.70
2022-09-14T01:57:18.569Z,1.50
2022-09-14T01:57:46.278Z,1.73
2022-09-14T01:58:12.256Z,1.60
2022-09-14T01:58:40.330Z,1.42
2022-09-14T01:59:08.371Z,1.45
2022-09-14T01:59:37.282Z,1.23
2022-09-14T02:00:03.061Z,1.52
2022-09-14T02:00:28.528Z,2.08
2022-09-14T02:00:53.870Z,1.38
2022-09-14T02:01:19.094Z,1.92
2022-09-14T02:01:50.644Z,1.90
2022-09-14T02:02:19.627Z,1.80
2022-09-14T02:02:46.714Z,1.77
2022-09-14T02:03:13.756Z,1.90
2022-09-14T02:03:40.207Z,1.80
2022-09-14T02:04:07.404Z,1.50
2022-09-14T02:04:36.341Z,1.90
2022-09-14T02:05:03.269Z,1.80
2022-09-14T02:05:29.707Z,1.60
2022-09-14T02:06:00.493Z,2.25
2022-09-14T02:06:28.371Z,1.80
2022-09-14T02:06:51.426Z,2.10
2022-09-14T02:07:13.955Z,1.50
2022-09-14T02:07:37.586Z,1.85
2022-09-14T02:08:00.699Z,1.73
2022-09-14T02:08:22.881Z,1.35
2022-09-14T02:08:44.591Z,2.05
2022-09-14T02:09:09.174Z,1.90
2022-09-14T02:09:31.890Z,1.95
2022-09-14T02:09:55.277Z,1.75
2022-09-14T02:10:17.505Z,1.50
2022-09-14T02:10:39.280Z,1.80
2022-09-14T02:11:04.015Z,1.90
2022-09-14T02:11:25.660Z,1.70
2022-09-14T02:11:47.419Z,2.10
2022-09-14T02:12:09.112Z,1.73
2022-09-14T02:12:31.278Z,1.92
2022-09-14T02:12:56.678Z,1.83
2022-09-14T02:13:18.341Z,1.75
2022-09-14T02:13:40.067Z,2.05
2022-09-14T02:14:02.232Z,2.10
2022-09-14T02:14:23.925Z,1.73
2022-09-14T02:14:47.837Z,1.58
2022-09-14T02:15:12.724Z,1.85
2022-09-14T02:15:35.847Z,2.05
2022-09-14T02:15:57.569Z,1.98
2022-09-14T02:16:22.051Z,1.88
2022-09-14T02:16:46.225Z,1.70
2022-09-14T02:17:09.152Z,1.40
2022-09-14T02:17:32.212Z,1.73
2022-09-14T02:17:54.415Z,2.00
2022-09-14T02:18:16.812Z,2.05
2022-09-14T02:18:40.056Z,1.63
2022-09-14T02:19:01.971Z,1.27
2022-09-14T02:19:25.288Z,1.30
2022-09-14T02:19:51.815Z,1.20
2022-09-14T02:20:21.763Z,1.25
2022-09-14T02:20:48.432Z,1.43
2022-09-14T02:21:14.663Z,1.95
2022-09-14T02:21:37.717Z,1.75
2022-09-14T02:21:59.778Z,1.60
2022-09-14T02:22:22.514Z,1.38
2022-09-14T02:22:44.540Z,1.30
2022-09-14T02:23:06.877Z,1.42
2022-09-14T02:23:28.823Z,1.67
2022-09-14T02:23:54.761Z,1.77
2022-09-14T02:24:17.257Z,1.50
2022-09-14T02:24:40.481Z,1.88
2022-09-14T02:25:03.037Z,1.80
2022-09-14T02:25:25.986Z,1.52
2022-09-14T02:25:50.671Z,1.80
2022-09-14T02:26:17.110Z,1.73
2022-09-14T02:26:39.504Z,1.10
2022-09-14T02:27:03.368Z,1.30
2022-09-14T02:27:25.421Z,1.30
2022-09-14T02:27:48.127Z,1.52
2022-09-14T02:28:11.786Z,1.27
2022-09-14T02:28:34.682Z,1.60
2022-09-14T02:28:57.901Z,1.55
2022-09-14T02:29:23.380Z,1.45
2022-09-14T02:30:29.057Z,1.48
2022-09-14T02:31:03.521Z,1.40
2022-09-14T02:31:37.451Z,1.83
2022-09-14T02:32:16.744Z,1.67
2022-09-14T02:33:03.849Z,1.38
2022-09-14T02:33:38.399Z,1.58
2022-09-14T02:35:28.260Z,1.38
2022-09-14T02:36:03.783Z,1.23
2022-09-14T02:36:44.431Z,1.35
2022-09-14T02:37:24.850Z,1.75
2022-09-14T02:38:07.614Z,1.30
2022-09-14T02:38:44.946Z,0.95
2022-09-14T02:39:17.758Z,1.20
2022-09-14T02:39:48.260Z,1.30
2022-09-14T02:40:27.644Z,0.95
2022-09-14T02:40:57.630Z,1.20
2022-09-14T02:41:34.924Z,1.30
2022-09-14T02:42:14.516Z,1.10
2022-09-14T02:42:49.973Z,1.30
2022-09-14T02:43:34.460Z,1.30
2022-09-14T02:44:07.078Z,1.00
2022-09-14T02:44:42.954Z,1.13
2022-09-14T02:45:19.853Z,1.42
2022-09-14T02:45:59.065Z,0.90
2022-09-14T02:46:29.416Z,1.05
2022-09-14T02:46:58.924Z,1.20
2022-09-14T02:47:39.490Z,0.98
2022-09-14T02:48:14.496Z,1.55
2022-09-14T02:48:43.502Z,0.70
2022-09-14T02:49:14.260Z,1.00
2022-09-14T02:49:49.579Z,1.42
2022-09-14T02:50:27.373Z,1.08
2022-09-14T02:51:10.200Z,1.38
2022-09-14T02:51:40.626Z,0.95
2022-09-14T02:52:18.196Z,1.33
2022-09-14T02:52:53.755Z,1.00
2022-09-14T02:53:21.904Z,1.05
2022-09-14T02:53:53.841Z,1.15
2022-09-14T02:54:31.018Z,1.38
2022-09-14T02:55:00.302Z,1.00
2022-09-14T02:55:36.568Z,1.33
2022-09-14T02:56:10.038Z,1.42
2022-09-14T02:56:38.536Z,1.20
2022-09-14T02:57:05.742Z,1.27
2022-09-14T02:58:02.394Z,1.55
2022-09-14T02:58:42.577Z,1.10
2022-09-14T02:59:12.057Z,1.35
2022-09-14T02:59:41.653Z,1.13
2022-09-14T03:00:11.120Z,0.98
2022-09-14T03:00:36.093Z,1.35
2022-09-14T03:00:59.140Z,1.63
2022-09-14T03:01:22.856Z,1.25
2022-09-14T03:01:44.655Z,1.30
2022-09-14T03:02:06.429Z,1.00
2022-09-14T03:02:30.301Z,0.80
2022-09-14T03:02:52.141Z,1.00
2022-09-14T03:03:15.072Z,1.10
2022-09-14T03:03:37.288Z,1.13
2022-09-14T03:03:58.926Z,0.80
2022-09-14T03:04:21.509Z,1.20
2022-09-14T03:04:45.323Z,1.50
2022-09-14T03:05:07.469Z,1.20
2022-09-14T03:05:29.303Z,0.90
2022-09-14T03:05:52.098Z,1.15
2022-09-14T03:06:14.514Z,1.10
2022-09-14T03:06:36.528Z,1.15
2022-09-14T03:06:58.447Z,1.05
2022-09-14T03:07:21.255Z,1.30
2022-09-14T03:07:43.032Z,0.90
2022-09-14T03:08:05.773Z,1.20
2022-09-14T03:08:28.836Z,1.20
2022-09-14T03:08:50.486Z,1.38
2022-09-14T03:09:13.153Z,1.13
2022-09-14T03:09:36.562Z,1.30
2022-09-14T03:09:58.185Z,1.42
2022-09-14T03:10:19.858Z,1.35
2022-09-14T03:10:44.028Z,1.25
2022-09-14T03:11:06.061Z,1.45
2022-09-14T03:11:27.780Z,1.63
2022-09-14T03:11:49.374Z,1.50
2022-09-14T03:12:11.492Z,1.45
2022-09-14T03:12:34.065Z,1.33
2022-09-14T03:12:56.154Z,1.50
2022-09-14T03:13:18.181Z,1.92
2022-09-14T03:13:42.281Z,1.70
2022-09-14T03:14:03.923Z,1.13
2022-09-14T03:14:26.460Z,1.00
2022-09-14T03:14:48.224Z,0.95
2022-09-14T03:15:10.888Z,1.00
2022-09-14T03:15:32.837Z,1.00
2022-09-14T03:15:55.444Z,1.20
2022-09-14T03:16:19.598Z,1.23
2022-09-14T03:16:41.322Z,1.52
2022-09-14T03:17:02.990Z,1.27
2022-09-14T03:17:25.569Z,1.30
2022-09-14T03:17:48.285Z,1.33
2022-09-14T03:18:14.052Z,1.95
2022-09-14T03:18:37.176Z,1.63
2022-09-14T03:18:59.864Z,1.50
2022-09-14T03:19:22.089Z,1.45
2022-09-14T03:19:43.672Z,1.60
2022-09-14T03:20:06.049Z,1.17
2022-09-14T03:20:32.164Z,1.45
2022-09-14T03:20:55.578Z,1.50
2022-09-14T03:21:18.037Z,1.45
2022-09-14T03:21:40.210Z,2.00
2022-09-14T03:22:02.775Z,1.40
2022-09-14T03:22:24.365Z,1.30
2022-09-14T03:22:46.015Z,1.90
2022-09-14T03:23:09.031Z,1.55
2022-09-14T03:23:30.796Z,1.42
2022-09-14T03:23:55.052Z,1.55
2022-09-14T03:24:16.624Z,1.25
2022-09-14T03:24:38.440Z,1.67
2022-09-14T03:25:00.031Z,1.65
2022-09-14T03:25:22.981Z,1.13
2022-09-14T03:25:46.075Z,1.30
2022-09-14T03:26:09.234Z,1.10
2022-09-14T03:26:30.995Z,1.20
2022-09-14T03:26:52.553Z,1.13
2022-09-14T03:27:15.282Z,1.20
2022-09-14T03:27:36.867Z,1.20
2022-09-14T03:27:59.927Z,1.40
2022-09-14T03:28:21.596Z,1.77
2022-09-14T03:28:45.525Z,1.33
2022-09-14T03:29:08.252Z,1.02
2022-09-14T03:29:29.825Z,1.00
2022-09-14T03:29:51.377Z,1.30
2022-09-14T03:30:13.677Z,1.13
2022-09-14T03:30:36.929Z,1.20
2022-09-14T03:31:00.629Z,1.52
2022-09-14T03:31:27.493Z,1.33
2022-09-14T03:31:52.786Z,1.35
2022-09-14T03:32:31.313Z,1.50
2022-09-14T03:32:55.276Z,1.50
2022-09-14T03:33:20.081Z,1.08
2022-09-14T03:33:44.297Z,1.27
2022-09-14T03:34:10.393Z,1.25
2022-09-14T03:34:44.383Z,1.23
2022-09-14T03:35:09.113Z,1.33
2022-09-14T03:35:32.628Z,1.25
2022-09-14T03:36:04.965Z,1.20
2022-09-14T03:36:43.793Z,1.58
2022-09-14T03:37:08.417Z,1.60
2022-09-14T03:37:34.682Z,1.42
2022-09-14T03:38:04.459Z,1.58
2022-09-14T03:38:30.564Z,1.00
2022-09-14T03:38:55.276Z,1.90
2022-09-14T03:39:23.260Z,1.42
2022-09-14T03:39:47.140Z,1.63
2022-09-14T03:40:12.463Z,1.35
2022-09-14T03:40:35.963Z,1.20
2022-09-14T03:41:03.925Z,1.42
2022-09-14T03:41:35.887Z,1.50
2022-09-14T03:41:57.511Z,1.98
2022-09-14T03:42:19.295Z,1.58
2022-09-14T03:42:42.276Z,1.30
2022-09-14T03:43:04.840Z,1.20
2022-09-14T03:43:27.038Z,1.60
2022-09-14T03:43:50.648Z,1.55
2022-09-14T03:44:12.272Z,1.10
2022-09-14T03:44:34.845Z,1.05
2022-09-14T03:44:56.560Z,1.10
2022-09-14T03:45:19.795Z,1.17
2022-09-14T03:45:43.790Z,1.25
2022-09-14T03:46:07.829Z,1.73
2022-09-14T03:46:29.509Z,1.90
2022-09-14T03:46:51.147Z,1.67
2022-09-14T03:47:12.822Z,1.50
2022-09-14T03:47:35.409Z,1.23
2022-09-14T03:47:56.992Z,1.58
2022-09-14T03:48:18.549Z,1.52
2022-09-14T03:48:40.870Z,1.60
2022-09-14T03:49:03.474Z,2.10
2022-09-14T03:49:25.098Z,1.50
2022-09-14T03:49:46.672Z,1.20
2022-09-14T03:50:09.669Z,1.67
2022-09-14T03:50:31.658Z,1.77
2022-09-14T03:50:54.168Z,1.38
2022-09-14T03:51:16.497Z,1.20
2022-09-14T03:51:38.102Z,1.88
2022-09-14T03:52:00.033Z,1.70
2022-09-14T03:52:27.052Z,1.80
2022-09-14T03:52:49.647Z,1.15
2022-09-14T03:53:12.730Z,1.50
2022-09-14T03:53:40.762Z,1.70
2022-09-14T03:54:12.422Z,1.42
2022-09-14T03:54:38.967Z,1.73
2022-09-14T03:55:10.808Z,2.10
2022-09-14T03:55:36.229Z,1.60
2022-09-14T03:56:00.798Z,1.10
2022-09-14T03:56:26.278Z,1.42
2022-09-14T03:56:48.686Z,1.80
2022-09-14T03:57:23.093Z,1.58
2022-09-14T03:57:56.626Z,1.20
2022-09-14T03:58:19.621Z,1.30
2022-09-14T03:58:48.747Z,1.40
2022-09-14T03:59:20.550Z,1.63
2022-09-14T03:59:52.860Z,1.65
2022-09-14T04:00:22.641Z,1.60
2022-09-14T04:00:52.636Z,1.40
2022-09-14T04:01:24.666Z,1.85
2022-09-14T04:01:53.209Z,1.77
2022-09-14T04:02:27.506Z,1.80
2022-09-14T04:02:50.115Z,1.20
2022-09-14T04:03:13.842Z,1.38
2022-09-14T04:03:35.989Z,1.75
2022-09-14T04:03:58.900Z,1.60
2022-09-14T04:04:20.604Z,1.73
2022-09-14T04:04:43.111Z,1.35
2022-09-14T04:05:05.407Z,1.60
2022-09-14T04:05:26.952Z,1.35
2022-09-14T04:05:54.931Z,1.50
2022-09-14T04:06:18.892Z,1.80
2022-09-14T04:06:40.433Z,1.77
2022-09-14T04:07:01.972Z,1.85
2022-09-14T04:07:23.557Z,1.50
2022-09-14T04:07:45.149Z,1.60
2022-09-14T04:08:07.720Z,1.88
2022-09-14T04:08:29.299Z,1.50
2022-09-14T04:08:50.971Z,1.70
2022-09-14T04:09:12.842Z,1.67
2022-09-14T04:09:35.505Z,1.40
2022-09-14T04:09:57.072Z,1.45
2022-09-14T04:10:18.932Z,1.27
2022-09-14T04:10:40.802Z,1.77
2022-09-14T04:11:07.836Z,1.40
2022-09-14T04:11:31.503Z,1.40
2022-09-14T04:11:53.074Z,1.20
2022-09-14T04:12:14.710Z,1.20
2022-09-14T04:12:37.633Z,1.70
2022-09-14T04:13:00.034Z,1.80
2022-09-14T04:13:22.612Z,1.73
2022-09-14T04:13:45.382Z,1.92
2022-09-14T04:14:08.349Z,1.63
2022-09-14T04:14:31.592Z,1.50
2022-09-14T04:14:54.401Z,1.10
2022-09-14T04:15:16.312Z,1.50
2022-09-14T04:15:37.941Z,1.70
2022-09-14T04:16:00.401Z,1.30
2022-09-14T04:16:22.494Z,1.73
2022-09-14T04:16:45.871Z,1.67
2022-09-14T04:17:07.470Z,1.58
2022-09-14T04:17:29.541Z,1.35
2022-09-14T04:17:51.523Z,1.73
2022-09-14T04:18:14.461Z,1.90
2022-09-14T04:18:36.292Z,1.73
2022-09-14T04:18:58.252Z,1.35
2022-09-14T04:19:20.101Z,1.40
2022-09-14T04:19:43.140Z,1.73
2022-09-14T04:20:05.460Z,1.77
2022-09-14T04:20:27.360Z,1.95
2022-09-14T04:20:54.723Z,1.30
2022-09-14T04:21:19.569Z,1.55
2022-09-14T04:21:41.126Z,1.40
2022-09-14T04:22:03.025Z,1.50
2022-09-14T04:22:24.710Z,1.38
2022-09-14T04:22:46.599Z,1.33
2022-09-14T04:23:09.613Z,1.58
2022-09-14T04:24:03.391Z,1.23
2022-09-14T04:24:22.040Z,1.92
2022-09-14T04:24:51.105Z,1.45
2022-09-14T04:25:17.652Z,1.40
2022-09-14T04:25:46.358Z,1.25
2022-09-14T04:26:15.504Z,1.55
2022-09-14T04:26:41.335Z,1.77
2022-09-14T04:27:21.300Z,1.70
2022-09-14T04:28:16.658Z,1.40
2022-09-14T04:28:40.902Z,1.75
2022-09-14T04:29:13.001Z,1.73
2022-09-14T04:29:43.783Z,1.77
2022-09-14T04:31:36.716Z,1.52
2022-09-14T04:32:10.124Z,1.48
2022-09-14T04:32:34.546Z,1.70
2022-09-14T04:33:08.628Z,1.92
2022-09-14T04:33:47.981Z,2.55
2022-09-14T04:34:12.978Z,1.20
2022-09-14T04:34:36.625Z,1.50
2022-09-14T04:34:58.242Z,1.30
2022-09-14T04:35:19.795Z,1.70
2022-09-14T04:35:41.508Z,1.58
2022-09-14T04:36:06.848Z,2.13
2022-09-14T04:36:31.922Z,1.90
2022-09-14T04:36:53.502Z,1.50
2022-09-14T04:37:15.202Z,1.15
2022-09-14T04:37:36.934Z,1.20
2022-09-14T04:37:58.665Z,1.52
2022-09-14T04:38:21.424Z,1.43
2022-09-14T04:38:43.937Z,1.35
2022-09-14T04:39:08.494Z,1.90
2022-09-14T04:39:31.093Z,1.52
2022-09-14T04:39:52.828Z,1.65
2022-09-14T04:40:15.101Z,1.52
2022-09-14T04:40:40.886Z,1.27
2022-09-14T04:41:08.620Z,1.55
2022-09-14T04:41:32.851Z,1.63
2022-09-14T04:41:54.433Z,1.85
2022-09-14T04:42:19.345Z,1.38
2022-09-14T04:42:41.474Z,1.73
2022-09-14T04:43:03.947Z,1.92
2022-09-14T04:43:29.824Z,1.92
2022-09-14T04:43:54.062Z,1.60
2022-09-14T04:44:17.196Z,1.70
2022-09-14T04:44:48.341Z,1.30
2022-09-14T04:45:21.357Z,1.65
2022-09-14T04:45:47.653Z,1.42
2022-09-14T04:46:16.402Z,1.58
2022-09-14T04:47:32.032Z,1.38
2022-09-14T04:48:01.434Z,2.08
2022-09-14T04:48:37.890Z,1.60
2022-09-14T04:49:03.335Z,2.05
2022-09-14T04:49:36.624Z,1.95
2022-09-14T04:50:01.391Z,1.77
2022-09-14T04:50:50.843Z,1.65
2022-09-14T04:51:21.971Z,1.88
2022-09-14T04:51:55.692Z,1.55
2022-09-14T04:52:21.974Z,1.52
2022-09-14T04:52:48.568Z,1.90
2022-09-14T04:53:13.390Z,2.00
2022-09-14T04:53:42.816Z,1.58
2022-09-14T04:54:09.544Z,2.05
2022-09-14T04:54:35.656Z,2.00
2022-09-14T04:54:58.473Z,1.77
2022-09-14T04:55:20.844Z,1.80
2022-09-14T04:55:43.632Z,1.80
2022-09-14T04:56:07.596Z,1.42
2022-09-14T04:56:32.017Z,2.10
2022-09-14T04:56:54.531Z,1.92
2022-09-14T04:57:16.089Z,1.90
2022-09-14T04:57:37.661Z,1.55
2022-09-14T04:57:59.201Z,1.55
2022-09-14T04:58:20.783Z,1.55
2022-09-14T04:58:48.253Z,1.85
2022-09-14T04:59:12.949Z,1.27
2022-09-14T04:59:34.978Z,1.42
2022-09-14T04:59:58.851Z,1.45
2022-09-14T05:00:20.820Z,1.70
2022-09-14T05:00:42.413Z,1.55
2022-09-14T05:01:05.324Z,1.85
2022-09-14T05:01:32.126Z,1.77
2022-09-14T05:01:53.934Z,1.50
2022-09-14T05:02:15.775Z,1.45
2022-09-14T05:02:40.827Z,1.83
2022-09-14T05:03:04.536Z,1.33
2022-09-14T05:03:26.196Z,1.50
2022-09-14T05:03:48.156Z,1.65
2022-09-14T05:04:11.317Z,1.73
2022-09-14T05:04:33.868Z,1.90
2022-09-14T05:04:55.414Z,1.75
2022-09-14T05:05:16.996Z,1.63
2022-09-14T05:05:40.927Z,1.75
2022-09-14T05:06:07.135Z,1.98
2022-09-14T05:06:30.277Z,1.77
2022-09-14T05:06:51.851Z,1.60
2022-09-14T05:07:14.357Z,1.27
2022-09-14T05:07:35.929Z,1.15
2022-09-14T05:07:57.754Z,1.65
2022-09-14T05:08:19.384Z,1.25
2022-09-14T05:08:41.862Z,1.50
2022-09-14T05:09:06.996Z,1.40
2022-09-14T05:09:28.605Z,1.40
2022-09-14T05:09:50.208Z,1.33
2022-09-14T05:10:12.017Z,1.40
2022-09-14T05:10:34.597Z,1.38
2022-09-14T05:10:56.935Z,1.25
2022-09-14T05:11:19.948Z,1.58
2022-09-14T05:11:42.915Z,1.58
2022-09-14T05:12:04.942Z,1.50
2022-09-14T05:12:27.733Z,1.60
2022-09-14T05:12:49.315Z,1.30
2022-09-14T05:13:11.250Z,1.75
2022-09-14T05:13:40.051Z,1.13
2022-09-14T05:14:03.245Z,1.35
2022-09-14T05:14:25.053Z,1.35
2022-09-14T05:14:47.710Z,0.80
2022-09-14T05:15:11.320Z,0.90
2022-09-14T05:15:32.919Z,1.20
2022-09-14T05:15:55.060Z,1.23
2022-09-14T05:16:22.159Z,0.82
2022-09-14T05:16:45.514Z,0.85
2022-09-14T05:17:07.111Z,0.90
2022-09-14T05:17:28.681Z,0.80
2022-09-14T05:17:50.268Z,0.90
2022-09-14T05:18:11.846Z,0.90
2022-09-14T05:18:33.923Z,0.90
2022-09-14T05:19:01.775Z,1.10
2022-09-14T05:19:24.654Z,1.10
2022-09-14T05:19:48.814Z,1.05
2022-09-14T05:20:10.377Z,1.23
2022-09-14T05:20:32.932Z,1.40
2022-09-14T05:20:54.512Z,1.42
2022-09-14T05:21:18.165Z,1.30
2022-09-14T05:21:39.822Z,1.10
2022-09-14T05:22:02.368Z,1.30
2022-09-14T05:22:23.941Z,1.25
2022-09-14T05:22:49.657Z,0.70
2022-09-14T05:23:11.436Z,0.90
2022-09-14T05:23:35.488Z,0.88
2022-09-14T05:23:58.986Z,0.90
2022-09-14T05:24:20.578Z,1.30
2022-09-14T05:24:43.117Z,1.10
2022-09-14T05:25:05.257Z,1.02
2022-09-14T05:25:27.426Z,1.20
2022-09-14T05:25:53.045Z,0.80
2022-09-14T05:26:15.672Z,1.33
2022-09-14T05:26:37.328Z,1.30
2022-09-14T05:27:01.579Z,1.02
2022-09-14T05:27:24.876Z,0.90
2022-09-14T05:27:46.561Z,1.35
2022-09-14T05:28:08.994Z,1.20
2022-09-14T05:28:31.159Z,0.98
2022-09-14T05:28:54.249Z,1.10
2022-09-14T05:29:18.702Z,1.08
2022-09-14T05:29:40.326Z,1.13
2022-09-14T05:30:02.003Z,0.98
2022-09-14T05:30:24.942Z,0.75
2022-09-14T05:30:47.539Z,1.17
2022-09-14T05:31:12.933Z,0.88
2022-09-14T05:31:34.821Z,0.80
2022-09-14T05:31:57.414Z,0.70
2022-09-14T05:32:19.002Z,1.05
2022-09-14T05:32:40.617Z,0.80
2022-09-14T05:33:02.256Z,0.70
2022-09-14T05:33:24.849Z,0.80
2022-09-14T05:33:46.559Z,0.93
2022-09-14T05:34:09.426Z,1.00
2022-09-14T05:34:32.428Z,1.10
2022-09-14T05:34:55.584Z,0.80
2022-09-14T05:35:17.368Z,0.85
2022-09-14T05:35:38.965Z,0.70
2022-09-14T05:36:01.361Z,0.55
2022-09-14T05:36:24.605Z,0.70
2022-09-14T05:36:46.419Z,0.73
2022-09-14T05:37:08.055Z,1.00
2022-09-14T05:37:29.617Z,1.05
2022-09-14T05:37:52.672Z,0.80
2022-09-14T05:38:14.997Z,0.90
2022-09-14T05:38:38.317Z,0.75
2022-09-14T05:39:00.897Z,1.10
2022-09-14T05:39:25.134Z,1.08
2022-09-14T05:39:46.794Z,1.00
2022-09-14T05:40:09.692Z,0.73
2022-09-14T05:40:31.621Z,0.70
2022-09-14T05:40:54.468Z,0.63
2022-09-14T05:41:17.937Z,0.68
2022-09-14T05:41:39.673Z,0.77
2022-09-14T05:42:01.318Z,0.90
2022-09-14T05:42:22.966Z,0.90